首页
METAR-TAF:

METAR-TAF

机场 :

石油平台

Heimdal, 挪威

纬度: 59-34-12N, 经度: 2-13-48E, 海拔: 10米

当前天气观测

该预报发布于39分钟前的06:20 UTC
风速22节,风向
温度 10°C
湿度 87%
气压 1006 hPa
能见度10公里或以上
少量云层高于1500英尺

METAR: ENHM 200620Z 01022KT 9999 FEW015 10/08 Q1006 W11/S5

时间: 08:59 (06:59 UTC)

预报

该预报发布于1小时和59分钟前的05:00 UTC
预报有效从20日的 06点(UTC)到 20日的 15点(UTC)
风速20节,风向北转东北
能见度10公里或以上
散云层高于2500英尺
成为
从 20日的 13点(UTC)到 20日的 15点(UTC)
风速30节,风向

TAF: ENHM 200500Z 2006/2015 02020KT 9999 SCT025 BECMG 2013/2015 01030KT

超过4000个机场的气象观测和天气预报(METAR&TAF报告)。

可查询的气象台以黄色和红色小点在地图上表示。

将鼠标移到小点上方,可查看气象台名称。

然后点击查看天气观测和预报。

如需切换地图:点击带黑十字的绿色按钮放大地图;点击带横线的绿色按钮缩小地图;或者点击绿色箭头查看邻近地区的地图。


METAR-TAF: